EKAL weather

CLOSED Allerød Airport
Allerød, Capital Region, Denmark

Public forecast

Using degrees Celsius for public forecast. Weather courtesy of forecast.io.

METAR (pilot weather report)

Closest report is Copenhagen Roskilde Airport, 18.2 nm (33.7 km) SSW. Retrieved 2019/05/21 12:20 UTC (0 seconds ago):

EKRK 211220Z AUTO 34006KT 9999 OVC010/// 18/16 Q1006

TAF (pilot weather forecast)

Closest forecast is Copenhagen Kastrup Airport, 19.0 nm (35.2 km) SE. Retrieved 2019/05/21 12:00 UTC (4 minutes ago):

TAF EKCH 211103Z 2112/2212 18008KT 9999 SCT030 PROB40 TEMPO 2112/2116 SHRA TSRA BKN012 SCT030CB BECMG 2120/2122 0500 FG BKN002 TEMPO 2122/2205 6000 NSW SCT008 BECMG 2205/2207 31012KT 9999 NSW BKN008 TEMPO 2207/2212 BKN012